createdAt,value
2018-03-03T00:01:19.155Z,88.90
2018-03-03T00:03:47.052Z,88.80
2018-03-03T00:06:14.949Z,89.00
2018-03-03T00:08:42.856Z,89.20
2018-03-03T00:11:10.400Z,89.20
2018-03-03T00:13:37.916Z,89.30
2018-03-03T00:16:05.805Z,89.30
2018-03-03T00:18:33.779Z,89.60
2018-03-03T00:21:01.272Z,89.60
2018-03-03T00:23:29.257Z,89.80
2018-03-03T00:25:56.848Z,89.80
2018-03-03T00:28:24.360Z,89.20
2018-03-03T00:30:52.336Z,89.60
2018-03-03T00:33:19.861Z,89.60
2018-03-03T00:35:47.408Z,89.70
2018-03-03T00:38:14.925Z,89.90
2018-03-03T00:40:42.437Z,90.30
2018-03-03T00:43:09.948Z,90.40
2018-03-03T00:45:37.452Z,90.10
2018-03-03T00:48:04.959Z,90.20
2018-03-03T00:50:32.852Z,90.40
2018-03-03T00:53:00.820Z,90.40
2018-03-03T00:55:28.333Z,90.30
2018-03-03T00:57:56.224Z,90.10
2018-03-03T01:00:24.205Z,90.10
2018-03-03T01:02:51.792Z,90.10
2018-03-03T01:05:19.400Z,90.10
2018-03-03T01:07:46.899Z,90.40
2018-03-03T01:10:14.408Z,90.10
2018-03-03T01:12:41.928Z,90.00
2018-03-03T01:15:09.519Z,90.40
2018-03-03T01:17:37.109Z,90.10
2018-03-03T01:20:04.701Z,90.20
2018-03-03T01:22:32.288Z,89.80
2018-03-03T01:24:59.877Z,90.10
2018-03-03T01:27:27.447Z,90.00
2018-03-03T01:29:54.969Z,90.20
2018-03-03T01:32:22.944Z,90.10
2018-03-03T01:34:50.463Z,90.10
2018-03-03T01:37:17.960Z,90.20
2018-03-03T01:39:45.496Z,90.20
2018-03-03T01:42:13.083Z,90.00
2018-03-03T01:44:40.669Z,90.30
2018-03-03T01:47:08.260Z,90.10
2018-03-03T01:49:35.852Z,90.30
2018-03-03T01:52:03.448Z,90.60
2018-03-03T01:54:31.432Z,90.90
2018-03-03T01:56:59.038Z,90.90
2018-03-03T01:59:26.950Z,90.50
2018-03-03T02:01:54.435Z,90.60
2018-03-03T02:04:21.949Z,90.90
2018-03-03T02:06:49.439Z,91.00
2018-03-03T02:09:17.043Z,90.80
2018-03-03T02:11:44.629Z,90.40
2018-03-03T02:14:12.147Z,90.40
2018-03-03T02:16:40.134Z,90.50
2018-03-03T02:19:08.048Z,90.70
2018-03-03T02:21:35.545Z,90.70
2018-03-03T02:24:03.079Z,90.30
2018-03-03T02:26:30.578Z,90.30
2018-03-03T02:28:58.096Z,90.20
2018-03-03T02:31:25.619Z,90.70
2018-03-03T02:33:53.138Z,90.70
2018-03-03T02:36:20.655Z,90.30
2018-03-03T02:38:48.204Z,90.50
2018-03-03T02:41:15.729Z,90.70
2018-03-03T02:43:43.299Z,90.50
2018-03-03T02:46:11.296Z,90.40
2018-03-03T02:48:39.188Z,90.00
2018-03-03T02:51:07.103Z,90.10
2018-03-03T02:53:34.649Z,90.10
2018-03-03T02:56:02.157Z,89.80
2018-03-03T02:58:30.134Z,90.20
2018-03-03T03:00:57.640Z,90.20
2018-03-03T03:03:25.640Z,89.90
2018-03-03T03:05:53.557Z,90.20
2018-03-03T03:08:21.106Z,90.20
2018-03-03T03:10:49.023Z,89.80
2018-03-03T03:13:16.908Z,90.10
2018-03-03T03:15:44.817Z,90.10
2018-03-03T03:18:12.320Z,90.10
2018-03-03T03:20:39.851Z,90.20
2018-03-03T03:23:07.340Z,90.50
2018-03-03T03:25:34.853Z,90.40
2018-03-03T03:28:02.356Z,90.20
2018-03-03T03:30:29.893Z,89.80
2018-03-03T03:32:57.488Z,90.10
2018-03-03T03:35:25.000Z,90.30
2018-03-03T03:37:52.971Z,90.20
2018-03-03T03:40:20.560Z,90.10
2018-03-03T03:42:48.060Z,90.30
2018-03-03T03:45:15.963Z,90.10
2018-03-03T03:47:43.858Z,89.90
2018-03-03T03:50:11.769Z,90.00
2018-03-03T03:52:39.274Z,90.00
2018-03-03T03:55:06.803Z,90.00
2018-03-03T03:57:34.297Z,89.90
2018-03-03T04:00:02.285Z,90.40
2018-03-03T04:02:29.869Z,90.40
2018-03-03T04:04:57.456Z,90.40
2018-03-03T04:07:25.049Z,90.30
2018-03-03T04:09:52.541Z,89.90
2018-03-03T04:12:20.456Z,90.50
2018-03-03T04:14:47.949Z,90.50
2018-03-03T04:17:15.493Z,90.50
2018-03-03T04:19:43.083Z,90.40
2018-03-03T04:22:10.662Z,90.40
2018-03-03T04:24:38.157Z,90.20
2018-03-03T04:27:05.674Z,90.50
2018-03-03T04:29:33.173Z,90.50
2018-03-03T04:32:00.692Z,90.20
2018-03-03T04:34:28.213Z,90.30
2018-03-03T04:36:56.125Z,90.40
2018-03-03T04:39:23.629Z,90.40
2018-03-03T04:41:51.146Z,90.20
2018-03-03T04:44:18.641Z,90.30
2018-03-03T04:46:46.153Z,90.10
2018-03-03T04:49:14.085Z,90.00
2018-03-03T04:51:41.566Z,90.00
2018-03-03T04:54:09.065Z,89.70
2018-03-03T04:56:36.641Z,89.50
2018-03-03T04:59:04.953Z,89.20
2018-03-03T05:04:35.376Z,88.80
2018-03-03T05:07:03.341Z,88.70
2018-03-03T05:09:30.832Z,88.60
2018-03-03T05:11:58.341Z,88.60
2018-03-03T05:17:34.118Z,88.10
2018-03-03T05:20:07.801Z,88.30
2018-03-03T05:22:41.109Z,88.30
2018-03-03T05:25:14.433Z,88.60
2018-03-03T05:27:47.665Z,88.30
2018-03-03T05:30:30.867Z,88.10
2018-03-03T05:33:13.656Z,88.50
2018-03-03T05:35:58.813Z,88.50
2018-03-03T05:38:32.346Z,88.60
2018-03-03T05:41:05.948Z,88.70
2018-03-03T05:43:35.282Z,88.70
2018-03-03T05:46:06.393Z,88.60
2018-03-03T05:48:42.404Z,88.60
2018-03-03T05:54:10.106Z,88.70
2018-03-03T05:56:43.762Z,89.00
2018-03-03T05:59:12.253Z,89.00
2018-03-03T06:01:45.556Z,88.60
2018-03-03T06:04:17.125Z,88.40
2018-03-03T06:06:45.017Z,88.70
2018-03-03T06:12:12.660Z,88.50
2018-03-03T06:14:40.169Z,88.40
2018-03-03T06:17:08.380Z,88.40
2018-03-03T06:19:35.893Z,88.40
2018-03-03T06:22:03.393Z,88.60
2018-03-03T06:24:30.903Z,88.60
2018-03-03T06:26:58.420Z,88.40
2018-03-03T06:29:25.933Z,88.40
2018-03-03T06:31:53.428Z,88.40
2018-03-03T06:34:20.944Z,88.20
2018-03-03T06:36:48.835Z,88.90
2018-03-03T06:39:16.345Z,88.90
2018-03-03T06:41:43.916Z,88.40
2018-03-03T06:44:11.828Z,89.10
2018-03-03T06:46:39.375Z,89.10
2018-03-03T06:49:06.964Z,88.90
2018-03-03T06:51:34.464Z,88.50
2018-03-03T06:54:02.389Z,88.90
2018-03-03T06:56:29.886Z,88.90
2018-03-03T06:58:57.416Z,88.60
2018-03-03T07:01:24.924Z,87.80
2018-03-03T07:03:53.293Z,87.70
2018-03-03T07:06:20.792Z,87.70
2018-03-03T07:08:48.381Z,87.60
2018-03-03T07:11:15.963Z,87.60
2018-03-03T07:13:43.456Z,87.50
2018-03-03T07:16:10.969Z,87.30
2018-03-03T07:18:38.473Z,87.40
2018-03-03T07:21:05.988Z,87.40
2018-03-03T07:23:33.485Z,87.20
2018-03-03T07:26:01.001Z,87.00
2018-03-03T07:28:28.939Z,86.50
2018-03-03T07:30:56.798Z,86.90
2018-03-03T07:33:24.683Z,86.40
2018-03-03T07:35:52.593Z,85.90
2018-03-03T07:38:20.096Z,85.80
2018-03-03T07:40:47.601Z,85.20
2018-03-03T07:43:15.088Z,85.50
2018-03-03T07:45:42.601Z,85.60
2018-03-03T07:48:10.103Z,85.60
2018-03-03T07:50:38.013Z,83.60
2018-03-03T07:53:05.912Z,84.40
2018-03-03T07:55:33.436Z,84.40
2018-03-03T07:58:00.938Z,84.70
2018-03-03T08:00:28.474Z,84.40
2018-03-03T08:02:55.964Z,84.50
2018-03-03T08:05:23.480Z,84.50
2018-03-03T08:07:50.967Z,84.00
2018-03-03T08:10:18.477Z,83.60
2018-03-03T08:12:45.994Z,83.90
2018-03-03T08:15:13.904Z,83.00
2018-03-03T08:17:41.409Z,83.00
2018-03-03T08:20:08.929Z,83.00
2018-03-03T08:22:36.429Z,81.90
2018-03-03T08:25:04.420Z,82.10
2018-03-03T08:27:31.912Z,82.10
2018-03-03T08:29:59.811Z,82.40
2018-03-03T08:32:27.699Z,82.40
2018-03-03T08:34:55.704Z,82.60
2018-03-03T08:37:23.615Z,82.40
2018-03-03T08:39:51.099Z,82.40
2018-03-03T08:42:18.602Z,83.00
2018-03-03T08:44:46.109Z,83.10
2018-03-03T08:47:13.736Z,82.50
2018-03-03T08:49:41.632Z,82.10
2018-03-03T08:52:09.540Z,82.10
2018-03-03T08:54:37.041Z,82.10
2018-03-03T08:57:04.557Z,82.30
2018-03-03T08:59:32.053Z,82.20
2018-03-03T09:01:59.664Z,81.70
2018-03-03T09:04:27.566Z,81.70
2018-03-03T09:06:55.093Z,81.70
2018-03-03T09:09:22.584Z,81.60
2018-03-03T09:11:50.096Z,81.70
2018-03-03T09:14:17.685Z,82.00
2018-03-03T09:16:45.703Z,80.80
2018-03-03T09:19:13.680Z,80.40
2018-03-03T09:21:41.193Z,80.40
2018-03-03T09:24:08.689Z,80.80
2018-03-03T09:26:36.228Z,80.90
2018-03-03T09:29:03.829Z,81.30
2018-03-03T09:31:31.742Z,81.30
2018-03-03T09:33:59.235Z,81.30
2018-03-03T09:36:26.752Z,81.60
2018-03-03T09:38:54.256Z,81.30
2018-03-03T09:41:21.768Z,81.20
2018-03-03T09:43:49.656Z,80.70
2018-03-03T09:46:17.159Z,80.60
2018-03-03T09:48:44.640Z,80.90
2018-03-03T09:51:12.606Z,81.00
2018-03-03T09:53:40.096Z,81.00
2018-03-03T09:56:08.031Z,81.60
2018-03-03T09:58:35.523Z,81.60
2018-03-03T10:01:03.024Z,81.30
2018-03-03T10:03:30.511Z,80.30
2018-03-03T10:05:58.029Z,80.90
2018-03-03T10:08:25.936Z,80.00
2018-03-03T10:10:53.899Z,79.70
2018-03-03T10:13:21.487Z,79.70
2018-03-03T10:15:48.976Z,79.70
2018-03-03T10:18:16.475Z,80.00
2018-03-03T10:20:44.382Z,79.70
2018-03-03T10:23:12.281Z,79.60
2018-03-03T10:25:39.840Z,79.60
2018-03-03T10:28:07.770Z,78.10
2018-03-03T10:30:35.263Z,78.10
2018-03-03T10:33:02.805Z,78.00
2018-03-03T10:35:30.319Z,77.90
2018-03-03T10:37:58.297Z,75.60
2018-03-03T10:40:25.783Z,75.60
2018-03-03T10:42:53.368Z,74.50
2018-03-03T10:45:20.863Z,74.90
2018-03-03T10:47:48.779Z,73.50
2018-03-03T10:50:16.264Z,73.50
2018-03-03T10:52:43.813Z,71.80
2018-03-03T10:55:11.296Z,71.30
2018-03-03T10:57:38.881Z,70.90
2018-03-03T11:00:06.467Z,70.50
2018-03-03T11:02:33.979Z,71.70
2018-03-03T11:05:01.861Z,70.90
2018-03-03T11:07:29.752Z,71.80
2018-03-03T11:09:57.249Z,71.80
2018-03-03T11:12:25.156Z,70.10
2018-03-03T11:14:52.709Z,70.10
2018-03-03T11:17:20.292Z,66.20
2018-03-03T11:19:47.772Z,66.40
2018-03-03T11:22:15.309Z,66.80
2018-03-03T11:24:42.811Z,69.10
2018-03-03T11:27:10.326Z,67.90
2018-03-03T11:29:37.823Z,69.00
2018-03-03T11:32:05.733Z,69.90
2018-03-03T11:34:33.244Z,69.90
2018-03-03T11:37:00.729Z,71.70
2018-03-03T11:39:28.237Z,71.10
2018-03-03T11:41:55.783Z,71.70
2018-03-03T11:44:23.285Z,72.00
2018-03-03T11:46:50.772Z,72.50
2018-03-03T11:49:18.275Z,73.40
2018-03-03T11:51:45.797Z,72.30
2018-03-03T11:54:13.696Z,72.30
2018-03-03T11:56:41.668Z,71.50
2018-03-03T11:59:09.256Z,71.50
2018-03-03T12:01:36.739Z,71.40
2018-03-03T12:04:04.248Z,71.10
2018-03-03T12:06:32.257Z,70.80
2018-03-03T12:08:59.805Z,70.80
2018-03-03T12:11:27.303Z,70.40
2018-03-03T12:13:54.803Z,70.70
2018-03-03T12:16:22.759Z,72.10
2018-03-03T12:18:50.259Z,72.00
2018-03-03T12:21:17.848Z,72.50
2018-03-03T12:23:45.425Z,72.40
2018-03-03T12:26:12.912Z,71.70
2018-03-03T12:28:40.495Z,72.90
2018-03-03T12:31:07.980Z,72.00
2018-03-03T12:33:35.596Z,71.90
2018-03-03T12:36:03.568Z,72.70
2018-03-03T12:38:31.063Z,72.70
2018-03-03T12:40:58.947Z,73.30
2018-03-03T12:43:26.456Z,73.30
2018-03-03T12:45:54.337Z,72.70
2018-03-03T12:48:22.242Z,73.00
2018-03-03T12:50:49.796Z,73.00
2018-03-03T12:53:17.290Z,73.60
2018-03-03T12:55:45.190Z,72.80
2018-03-03T12:58:13.073Z,73.30
2018-03-03T13:00:41.061Z,73.00
2018-03-03T13:03:08.640Z,72.90
2018-03-03T13:05:36.241Z,72.90
2018-03-03T13:08:03.733Z,72.80
2018-03-03T13:10:31.641Z,72.90
2018-03-03T13:12:59.608Z,74.50
2018-03-03T13:15:27.599Z,72.90
2018-03-03T13:17:55.202Z,72.90
2018-03-03T13:20:22.775Z,73.10
2018-03-03T13:22:50.268Z,71.00
2018-03-03T13:25:17.772Z,71.80
2018-03-03T13:27:45.661Z,72.80
2018-03-03T13:30:13.570Z,73.40
2018-03-03T13:32:41.542Z,73.30
2018-03-03T13:35:09.057Z,73.30
2018-03-03T13:37:36.613Z,73.50
2018-03-03T13:40:04.125Z,73.50
2018-03-03T13:42:32.008Z,73.60
2018-03-03T13:44:59.914Z,74.70
2018-03-03T13:48:29.645Z,73.90
2018-03-03T13:50:57.540Z,73.90
2018-03-03T13:53:25.421Z,73.80
2018-03-03T13:55:52.958Z,73.80
2018-03-03T13:58:20.457Z,74.20
2018-03-03T14:00:47.961Z,74.50
2018-03-03T14:03:15.539Z,74.80
2018-03-03T14:05:43.035Z,74.90
2018-03-03T14:08:10.515Z,74.50
2018-03-03T14:19:16.743Z,75.50
2018-03-03T14:21:44.248Z,75.10
2018-03-03T14:24:12.224Z,75.30
2018-03-03T14:26:39.724Z,75.30
2018-03-03T14:29:07.699Z,74.40
2018-03-03T14:31:35.292Z,74.30
2018-03-03T14:34:03.197Z,74.70
2018-03-03T14:36:31.087Z,74.80
2018-03-03T14:38:58.973Z,74.70
2018-03-03T14:41:26.867Z,75.80
2018-03-03T14:43:54.748Z,76.50
2018-03-03T14:46:22.252Z,76.50
2018-03-03T14:48:50.234Z,74.90
2018-03-03T14:51:18.142Z,74.90
2018-03-03T14:53:46.111Z,74.70
2018-03-03T14:56:13.615Z,74.70
2018-03-03T14:58:41.501Z,74.70
2018-03-03T15:01:09.397Z,74.50
2018-03-03T15:03:37.368Z,74.30
2018-03-03T15:06:04.970Z,74.40
2018-03-03T15:08:32.466Z,74.90
2018-03-03T15:11:00.369Z,74.50
2018-03-03T15:13:27.885Z,74.50
2018-03-03T15:15:55.388Z,74.40
2018-03-03T15:18:22.894Z,74.30
2018-03-03T15:20:50.884Z,74.80
2018-03-03T15:23:18.377Z,74.80
2018-03-03T15:25:46.285Z,75.60
2018-03-03T15:28:13.772Z,75.60
2018-03-03T15:30:41.281Z,70.70
2018-03-03T15:33:08.772Z,70.80
2018-03-03T15:35:36.280Z,71.50
2018-03-03T15:38:03.869Z,72.80
2018-03-03T15:40:31.372Z,73.50
2018-03-03T15:42:59.349Z,74.50
2018-03-03T15:45:26.869Z,74.50
2018-03-03T15:47:54.351Z,75.10
2018-03-03T15:50:21.842Z,75.30
2018-03-03T15:52:49.339Z,75.40
2018-03-03T15:55:16.865Z,76.00
2018-03-03T15:57:44.448Z,76.00
2018-03-03T16:00:11.942Z,76.00
2018-03-03T16:02:39.924Z,76.90
2018-03-03T16:05:07.413Z,76.90
2018-03-03T16:07:35.387Z,76.50
2018-03-03T16:10:02.885Z,76.50
2018-03-03T16:12:30.464Z,76.70
2018-03-03T16:14:57.961Z,76.30
2018-03-03T16:17:25.872Z,77.10
2018-03-03T16:19:53.368Z,77.10
2018-03-03T16:22:20.913Z,77.10
2018-03-03T16:24:48.481Z,77.30
2018-03-03T16:27:16.097Z,77.40
2018-03-03T16:29:44.008Z,78.30
2018-03-03T16:32:11.516Z,78.30
2018-03-03T16:34:39.040Z,78.30
2018-03-03T16:37:06.549Z,78.60
2018-03-03T16:39:34.433Z,78.80
2018-03-03T16:42:02.389Z,78.70
2018-03-03T16:44:29.901Z,78.70
2018-03-03T16:46:57.408Z,78.50
2018-03-03T16:49:24.913Z,78.80
2018-03-03T16:51:52.430Z,79.50
2018-03-03T16:54:19.932Z,79.70
2018-03-03T16:56:47.938Z,79.50
2018-03-03T16:59:15.497Z,79.50
2018-03-03T17:01:43.109Z,79.30
2018-03-03T17:04:10.596Z,79.10
2018-03-03T17:06:38.134Z,79.40
2018-03-03T17:09:05.624Z,79.40
2018-03-03T17:11:33.122Z,79.30
2018-03-03T17:14:01.042Z,79.70
2018-03-03T17:16:28.523Z,79.70
2018-03-03T17:18:56.155Z,79.60
2018-03-03T17:21:23.646Z,79.90
2018-03-03T17:23:51.235Z,80.20
2018-03-03T17:26:18.802Z,80.40
2018-03-03T17:28:46.298Z,80.60
2018-03-03T17:31:13.785Z,80.60
2018-03-03T17:33:41.399Z,80.60
2018-03-03T17:36:09.272Z,80.50
2018-03-03T17:38:36.876Z,80.50
2018-03-03T17:41:04.852Z,80.50
2018-03-03T17:43:32.383Z,80.50
2018-03-03T17:45:59.873Z,80.50
2018-03-03T17:48:27.497Z,80.70
2018-03-03T17:50:54.977Z,81.00
2018-03-03T17:53:22.692Z,81.30
2018-03-03T17:55:50.667Z,82.00
2018-03-03T17:58:18.280Z,82.00
2018-03-03T18:00:45.766Z,82.10
2018-03-03T18:03:13.390Z,82.20
2018-03-03T18:05:40.888Z,82.10
2018-03-03T18:08:08.533Z,82.20
2018-03-03T18:10:36.015Z,82.00
2018-03-03T18:13:03.633Z,81.80
2018-03-03T18:15:31.124Z,82.00
2018-03-03T18:17:58.743Z,81.90
2018-03-03T18:20:26.623Z,82.10
2018-03-03T18:22:54.889Z,82.40
2018-03-03T18:25:22.367Z,82.40
2018-03-03T18:27:50.062Z,82.30
2018-03-03T18:30:17.553Z,82.60
2018-03-03T18:32:45.237Z,82.60
2018-03-03T18:35:12.725Z,82.90
2018-03-03T18:37:40.457Z,82.90
2018-03-03T18:40:07.964Z,83.10
2018-03-03T18:42:35.663Z,83.20
2018-03-03T18:45:03.279Z,83.30
2018-03-03T18:47:30.907Z,83.20
2018-03-03T18:49:58.403Z,83.40
2018-03-03T18:52:26.053Z,83.50
2018-03-03T18:54:53.637Z,83.30
2018-03-03T18:57:21.676Z,83.50
2018-03-03T18:59:49.185Z,83.60
2018-03-03T19:02:16.762Z,83.40
2018-03-03T19:04:44.363Z,83.60
2018-03-03T19:07:12.029Z,83.70
2018-03-03T19:09:39.533Z,83.60
2018-03-03T19:12:07.142Z,83.80
2018-03-03T19:14:35.077Z,83.80
2018-03-03T19:17:02.930Z,83.80
2018-03-03T19:19:30.825Z,83.40
2018-03-03T19:21:58.802Z,83.20
2018-03-03T19:24:26.386Z,83.20
2018-03-03T19:26:54.381Z,83.30
2018-03-03T19:29:22.285Z,83.10
2018-03-03T19:31:50.170Z,83.40
2018-03-03T19:34:18.156Z,83.70
2018-03-03T19:36:45.831Z,83.70
2018-03-03T19:39:13.451Z,83.70
2018-03-03T19:41:41.419Z,83.80
2018-03-03T19:44:09.065Z,83.80
2018-03-03T19:46:36.583Z,83.80
2018-03-03T19:51:57.501Z,84.20
2018-03-03T19:54:25.065Z,84.20
2018-03-03T19:56:53.048Z,84.30
2018-03-03T19:59:20.634Z,84.30
2018-03-03T20:01:48.134Z,84.40
2018-03-03T20:04:15.673Z,84.10
2018-03-03T20:06:43.170Z,84.10
2018-03-03T20:09:10.939Z,84.10
2018-03-03T20:11:38.423Z,84.10
2018-03-03T20:14:06.154Z,84.10
2018-03-03T20:16:33.753Z,84.30
2018-03-03T20:19:01.372Z,84.50
2018-03-03T20:21:28.934Z,84.40
2018-03-03T20:23:56.935Z,84.50
2018-03-03T20:26:24.836Z,84.30
2018-03-03T20:28:52.716Z,84.40
2018-03-03T20:31:20.295Z,84.40
2018-03-03T20:33:47.792Z,84.60
2018-03-03T20:36:15.287Z,84.80
2018-03-03T20:38:43.197Z,84.90
2018-03-03T20:41:11.097Z,84.80
2018-03-03T20:43:38.588Z,84.80
2018-03-03T20:46:06.129Z,84.80
2018-03-03T20:48:33.717Z,84.70
2018-03-03T20:51:01.300Z,84.70
2018-03-03T20:53:29.061Z,84.70
2018-03-03T20:55:56.576Z,84.90
2018-03-03T20:58:24.068Z,85.10
2018-03-03T21:00:51.673Z,84.90
2018-03-03T21:03:19.171Z,85.10
2018-03-03T21:05:47.076Z,85.20
2018-03-03T21:08:14.958Z,84.90
2018-03-03T21:10:42.867Z,85.00
2018-03-03T21:13:10.352Z,85.00
2018-03-03T21:15:37.910Z,85.00
2018-03-03T21:18:05.401Z,85.10
2018-03-03T21:20:32.908Z,84.90
2018-03-03T21:23:00.589Z,84.90
2018-03-03T21:25:28.100Z,85.00
2018-03-03T21:27:55.661Z,85.10
2018-03-03T21:30:23.566Z,85.50
2018-03-03T21:32:51.453Z,85.70
2018-03-03T21:35:18.966Z,85.70
2018-03-03T21:37:46.469Z,85.80
2018-03-03T21:40:13.978Z,85.90
2018-03-03T21:42:41.473Z,86.00
2018-03-03T21:45:08.962Z,86.00
2018-03-03T21:47:36.495Z,86.00
2018-03-03T21:50:03.984Z,85.80
2018-03-03T21:52:31.891Z,85.80
2018-03-03T21:54:59.408Z,85.90
2018-03-03T21:57:27.014Z,86.10
2018-03-03T21:59:54.504Z,86.10
2018-03-03T22:02:22.068Z,86.20
2018-03-03T22:04:49.552Z,86.10
2018-03-03T22:07:17.062Z,86.10
2018-03-03T22:09:44.980Z,86.30
2018-03-03T22:12:12.484Z,86.30
2018-03-03T22:14:39.967Z,86.30
2018-03-03T22:17:07.478Z,86.40
2018-03-03T22:19:35.082Z,85.90
2018-03-03T22:22:02.591Z,85.80
2018-03-03T22:24:30.080Z,86.00
2018-03-03T22:26:57.596Z,85.80
2018-03-03T22:29:25.084Z,85.90
2018-03-03T22:31:52.589Z,85.90
2018-03-03T22:34:20.169Z,85.80
2018-03-03T22:36:47.686Z,85.70
2018-03-03T22:39:15.253Z,85.40
2018-03-03T22:41:42.836Z,85.40
2018-03-03T22:44:10.733Z,85.40
2018-03-03T22:46:38.641Z,85.50
2018-03-03T22:49:06.617Z,85.50
2018-03-03T22:51:34.129Z,85.50
2018-03-03T22:54:01.693Z,85.50
2018-03-03T22:56:29.215Z,85.50
2018-03-03T22:58:56.733Z,85.40
2018-03-03T23:01:24.328Z,85.30
2018-03-03T23:03:51.816Z,85.40
2018-03-03T23:06:19.323Z,85.50
2018-03-03T23:08:47.290Z,85.60
2018-03-03T23:11:14.776Z,85.60
2018-03-03T23:13:42.361Z,85.50
2018-03-03T23:16:09.859Z,85.30
2018-03-03T23:18:37.765Z,85.30
2018-03-03T23:21:05.321Z,85.30
2018-03-03T23:23:32.899Z,85.30
2018-03-03T23:26:00.505Z,85.10
2018-03-03T23:28:28.476Z,85.00
2018-03-03T23:30:55.973Z,85.00
2018-03-03T23:33:23.485Z,84.80
2018-03-03T23:35:51.037Z,84.70
2018-03-03T23:38:18.549Z,84.70
2018-03-03T23:40:46.040Z,84.90
2018-03-03T23:43:13.548Z,85.00
2018-03-03T23:45:41.040Z,84.90
2018-03-03T23:48:08.752Z,85.00
2018-03-03T23:50:36.249Z,85.00
2018-03-03T23:53:03.760Z,85.00
2018-03-03T23:55:31.253Z,85.00
2018-03-03T23:57:58.787Z,85.20
